Time;durP1;ratioP1;P1;durP2;ratioP2;P2;SDS_P1;SDS_P2;PMS_P1;PMS_P2;Temp;Humidity;BMP_temperature;BMP_pressure;BME280_temperature;BME280_humidity;BME280_pressure;Samples;Min_cycle;Max_cycle;Signal;HPM_P1;HPM_P2
2021/04/05 00:01:34;;;;;;;18.17;8.90;;;6.10;95.50;;;;;;5047665;28;20988;-69
2021/04/05 00:04:01;;;;;;;18.70;8.30;;;5.90;95.70;;;;;;5048171;28;20454;-69
2021/04/05 00:06:27;;;;;;;19.40;9.70;;;6.00;95.70;;;;;;5047249;28;20578;-69
2021/04/05 00:08:53;;;;;;;14.20;7.67;;;5.90;95.70;;;;;;5047519;28;20534;-69
2021/04/05 00:11:21;;;;;;;20.37;9.20;;;5.90;96.00;;;;;;5047774;28;20463;-69
2021/04/05 00:13:47;;;;;;;16.80;8.90;;;5.80;96.20;;;;;;5047698;28;20479;-68
2021/04/05 00:16:16;;;;;;;17.10;8.33;;;6.00;96.70;;;;;;5047148;28;20501;-68
2021/04/05 00:18:43;;;;;;;17.00;7.67;;;5.90;96.10;;;;;;5047388;28;20448;-68
2021/04/05 00:21:11;;;;;;;18.73;8.60;;;5.80;96.20;;;;;;5047692;28;20513;-69
2021/04/05 00:23:38;;;;;;;18.03;8.70;;;5.80;96.80;;;;;;5047733;28;20447;-69
2021/04/05 00:26:05;;;;;;;16.93;8.57;;;5.80;96.10;;;;;;5046980;28;20451;-68
2021/04/05 00:28:32;;;;;;;14.47;7.60;;;5.90;96.40;;;;;;5047032;28;20447;-69
2021/04/05 00:30:59;;;;;;;21.03;8.73;;;6.00;96.10;;;;;;5047319;28;20988;-69
2021/04/05 00:33:25;;;;;;;15.97;8.03;;;6.10;95.90;;;;;;5047101;28;20503;-68
2021/04/05 00:35:52;;;;;;;14.00;7.83;;;6.00;96.50;;;;;;5047295;28;20448;-69
2021/04/05 00:38:18;;;;;;;22.47;9.00;;;6.00;96.80;;;;;;5046838;28;20481;-69
2021/04/05 00:40:49;;;;;;;15.93;7.67;;;6.00;96.00;;;;;;5047377;28;20464;-68
2021/04/05 00:43:17;;;;;;;17.90;8.20;;;5.90;96.80;;;;;;5047625;28;20455;-68
2021/04/05 00:45:45;;;;;;;16.50;8.43;;;6.20;96.40;;;;;;5045004;28;20825;-69
2021/04/05 00:48:12;;;;;;;17.70;8.63;;;6.00;96.20;;;;;;5047153;28;20455;-69
2021/04/05 00:50:46;;;;;;;14.53;8.47;;;5.80;97.00;;;;;;5047132;28;20464;-69
2021/04/05 00:53:14;;;;;;;19.50;8.57;;;5.90;96.70;;;;;;5047637;28;20537;-69
2021/04/05 00:55:42;;;;;;;17.13;8.40;;;6.10;96.80;;;;;;5047073;28;20451;-69
2021/04/05 00:58:08;;;;;;;16.13;8.40;;;5.90;96.80;;;;;;5047288;28;20493;-68
2021/04/05 01:00:38;;;;;;;15.90;8.37;;;5.90;97.10;;;;;;5048099;28;20474;-69
2021/04/05 01:03:07;;;;;;;17.83;8.60;;;5.80;97.40;;;;;;5050793;28;20497;-68
2021/04/05 01:05:33;;;;;;;15.20;8.70;;;5.50;98.30;;;;;;5051595;28;20447;-69
2021/04/05 01:08:00;;;;;;;19.63;8.67;;;5.50;98.50;;;;;;5051642;28;20439;-69
2021/04/05 01:10:26;;;;;;;16.73;8.43;;;5.30;99.10;;;;;;5051865;28;20478;-68
2021/04/05 01:12:53;;;;;;;16.73;8.53;;;5.30;98.90;;;;;;5052081;28;20501;-69
2021/04/05 01:15:19;;;;;;;17.00;8.70;;;5.30;99.20;;;;;;5051507;28;20813;-68
2021/04/05 01:17:47;;;;;;;21.33;9.17;;;5.40;98.60;;;;;;5051630;28;20968;-69
2021/04/05 01:20:16;;;;;;;19.37;8.73;;;5.40;99.60;;;;;;5051629;28;20605;-69
2021/04/05 01:22:44;;;;;;;17.40;8.27;;;5.50;98.40;;;;;;5051460;28;20450;-67
2021/04/05 01:25:13;;;;;;;19.90;7.90;;;5.50;98.60;;;;;;5051216;28;20448;-69
2021/04/05 01:27:39;;;;;;;17.10;9.10;;;5.40;98.40;;;;;;5051270;28;20447;-68
2021/04/05 01:30:09;;;;;;;20.27;9.10;;;5.50;99.20;;;;;;5051105;28;20838;-71
2021/04/05 01:32:35;;;;;;;18.37;8.60;;;5.40;99.40;;;;;;5052389;28;20480;-71
2021/04/05 01:35:03;;;;;;;18.60;8.40;;;5.40;99.70;;;;;;5050862;28;20436;-71
2021/04/05 01:37:29;;;;;;;16.43;8.83;;;5.30;99.70;;;;;;5051013;28;20455;-71
2021/04/05 01:39:56;;;;;;;15.47;8.27;;;5.20;99.60;;;;;;5051338;28;20447;-71
2021/04/05 01:42:22;;;;;;;17.87;8.93;;;5.20;99.70;;;;;;5051075;28;20448;-70
2021/04/05 01:44:48;;;;;;;13.87;8.13;;;4.90;99.70;;;;;;5049467;28;20832;-70
2021/04/05 01:47:15;;;;;;;16.07;8.37;;;4.90;99.70;;;;;;5050046;28;20440;-69
2021/04/05 01:49:41;;;;;;;15.07;7.80;;;4.90;99.70;;;;;;5051418;28;21068;-71
2021/04/05 01:52:14;;;;;;;14.90;7.90;;;5.00;99.70;;;;;;5050889;28;20894;-70
2021/04/05 01:54:40;;;;;;;13.20;7.47;;;5.10;99.70;;;;;;5051085;28;20443;-71
2021/04/05 01:57:10;;;;;;;17.03;7.63;;;5.00;99.70;;;;;;5050116;28;20452;-71
2021/04/05 01:59:38;;;;;;;15.50;8.40;;;5.00;99.70;;;;;;5050836;28;20471;-71
2021/04/05 02:02:05;;;;;;;16.13;8.10;;;5.10;99.70;;;;;;5050597;28;21032;-70
2021/04/05 02:04:33;;;;;;;17.80;7.83;;;5.30;99.70;;;;;;5050569;28;20443;-70
2021/04/05 02:06:59;;;;;;;17.80;8.03;;;5.40;99.70;;;;;;5050083;28;20450;-70
2021/04/05 02:09:25;;;;;;;16.17;7.90;;;5.20;99.70;;;;;;5050633;28;20456;-71
2021/04/05 02:11:52;;;;;;;14.10;7.73;;;5.30;99.70;;;;;;5050555;28;20467;-70
2021/04/05 02:14:19;;;;;;;16.93;7.67;;;5.20;99.70;;;;;;5049545;28;20448;-71
2021/04/05 02:16:45;;;;;;;16.53;8.37;;;5.20;99.70;;;;;;5049680;28;20446;-70
2021/04/05 02:19:15;;;;;;;16.83;8.60;;;5.10;99.70;;;;;;5050509;28;20471;-71
2021/04/05 02:21:41;;;;;;;14.53;8.13;;;4.90;99.70;;;;;;5050517;28;20907;-71
2021/04/05 02:24:09;;;;;;;20.43;9.00;;;5.00;99.70;;;;;;5050307;28;20867;-71
2021/04/05 02:26:36;;;;;;;17.07;9.20;;;4.90;99.70;;;;;;5049956;28;20440;-70
2021/04/05 02:29:04;;;;;;;17.70;8.47;;;4.90;99.70;;;;;;5049970;28;20452;-69
2021/04/05 02:31:32;;;;;;;13.87;8.20;;;4.70;99.70;;;;;;5050167;28;20532;-70
2021/04/05 02:33:59;;;;;;;17.30;9.40;;;4.50;99.70;;;;;;5050155;28;20479;-69
2021/04/05 02:36:28;;;;;;;19.13;8.30;;;4.30;99.70;;;;;;5049610;28;20448;-70
2021/04/05 02:38:55;;;;;;;19.10;8.40;;;4.30;99.70;;;;;;5049732;28;20470;-71
2021/04/05 02:41:24;;;;;;;15.40;8.37;;;4.40;99.70;;;;;;5050049;28;20468;-71
2021/04/05 02:43:52;;;;;;;14.30;8.20;;;4.40;99.70;;;;;;5050279;28;20452;-70
2021/04/05 02:46:21;;;;;;;17.90;8.67;;;4.40;99.70;;;;;;5047640;28;20451;-70
2021/04/05 02:48:49;;;;;;;18.00;8.20;;;4.30;99.70;;;;;;5049689;28;20501;-70
2021/04/05 02:51:16;;;;;;;15.60;8.97;;;4.20;99.70;;;;;;5050321;28;20494;-71
2021/04/05 02:53:45;;;;;;;15.07;8.20;;;4.10;99.70;;;;;;5049714;28;20480;-69
2021/04/05 02:56:12;;;;;;;14.07;8.30;;;4.00;99.70;;;;;;5049670;28;20444;-71
2021/04/05 02:58:41;;;;;;;20.80;9.40;;;3.90;99.70;;;;;;5049541;28;20845;-71
2021/04/05 03:01:08;;;;;;;16.13;8.83;;;4.00;99.70;;;;;;5049507;28;20460;-71
2021/04/05 03:03:35;;;;;;;17.13;8.87;;;4.00;99.70;;;;;;5049540;28;20482;-71
2021/04/05 03:06:02;;;;;;;17.40;9.50;;;3.90;99.70;;;;;;5049237;28;20440;-71
2021/04/05 03:08:29;;;;;;;19.43;9.40;;;3.70;99.70;;;;;;5049473;28;20443;-71
2021/04/05 03:10:56;;;;;;;23.20;10.33;;;3.80;99.70;;;;;;5049484;28;20521;-71
2021/04/05 03:13:24;;;;;;;17.77;9.43;;;3.60;99.70;;;;;;5049575;28;20483;-70
2021/04/05 03:15:50;;;;;;;18.53;9.87;;;3.70;99.70;;;;;;5048766;28;20952;-71
2021/04/05 03:18:20;;;;;;;21.93;9.03;;;3.50;99.70;;;;;;5049005;28;20444;-71
2021/04/05 03:20:48;;;;;;;17.70;9.57;;;3.70;99.70;;;;;;5049277;28;20475;-71
2021/04/05 03:23:15;;;;;;;22.83;10.63;;;3.60;99.70;;;;;;5049487;28;20443;-70
2021/04/05 03:25:42;;;;;;;20.40;9.30;;;3.50;99.70;;;;;;5048788;28;20505;-70
2021/04/05 03:28:09;;;;;;;17.37;8.87;;;3.60;99.70;;;;;;5048904;28;20451;-71
2021/04/05 03:30:48;;;;;;;17.43;8.63;;;3.80;99.70;;;;;;5049141;28;20476;-70
2021/04/05 03:33:19;;;;;;;18.57;8.63;;;4.00;99.70;;;;;;5049338;28;20517;-71
2021/04/05 03:35:56;;;;;;;16.90;7.80;;;4.00;99.70;;;;;;5048495;28;20447;-71
2021/04/05 03:38:23;;;;;;;16.67;8.07;;;4.10;99.70;;;;;;5048829;28;20443;-70
2021/04/05 03:40:49;;;;;;;17.27;8.17;;;4.10;99.70;;;;;;5048875;28;20475;-70
2021/04/05 03:43:23;;;;;;;18.97;8.30;;;4.00;99.70;;;;;;5049372;28;20438;-71
2021/04/05 03:45:53;;;;;;;14.47;8.20;;;4.10;99.70;;;;;;5047174;28;20451;-71
2021/04/05 03:48:25;;;;;;;13.47;7.60;;;4.30;99.70;;;;;;5048596;28;20525;-71
2021/04/05 03:50:58;;;;;;;15.00;8.17;;;4.20;99.70;;;;;;5048874;28;20467;-70
2021/04/05 03:53:40;;;;;;;19.50;7.57;;;4.10;99.70;;;;;;5048846;28;20479;-70
2021/04/05 03:56:12;;;;;;;14.87;7.50;;;4.20;99.70;;;;;;5048568;28;20447;-71
2021/04/05 03:58:41;;;;;;;15.20;8.10;;;4.10;99.70;;;;;;5048505;28;20974;-70
2021/04/05 04:01:10;;;;;;;13.20;7.70;;;4.00;99.70;;;;;;5048626;28;20490;-71
2021/04/05 04:03:47;;;;;;;15.50;8.03;;;3.90;99.70;;;;;;5048902;28;20956;-71
2021/04/05 04:06:18;;;;;;;15.90;7.80;;;3.90;99.70;;;;;;5048253;28;21022;-71
2021/04/05 04:08:47;;;;;;;15.80;8.00;;;3.90;99.70;;;;;;5048429;28;20811;-70
2021/04/05 04:11:18;;;;;;;17.40;8.00;;;3.90;99.70;;;;;;5048529;28;20953;-71
2021/04/05 04:13:46;;;;;;;18.57;8.73;;;3.80;99.70;;;;;;5048630;28;20826;-70
2021/04/05 04:16:14;;;;;;;15.80;8.40;;;3.80;99.70;;;;;;5048299;28;20482;-70
2021/04/05 04:18:41;;;;;;;17.20;8.20;;;3.70;99.70;;;;;;5048401;28;20447;-70
2021/04/05 04:21:08;;;;;;;19.70;8.67;;;3.70;99.70;;;;;;5048378;28;20483;-70
2021/04/05 04:23:36;;;;;;;20.20;8.83;;;3.60;99.70;;;;;;5048601;28;20443;-70
2021/04/05 04:26:03;;;;;;;18.30;8.40;;;3.50;99.70;;;;;;5048260;28;20447;-70
2021/04/05 04:28:30;;;;;;;15.80;7.80;;;3.60;99.70;;;;;;5048039;28;20451;-70
2021/04/05 04:30:56;;;;;;;16.33;8.60;;;3.60;99.70;;;;;;5048260;28;20471;-70
2021/04/05 04:33:26;;;;;;;15.90;8.00;;;3.60;99.70;;;;;;5048353;28;20483;-68
2021/04/05 04:35:52;;;;;;;19.10;9.00;;;3.70;99.70;;;;;;5047905;28;20478;-70
2021/04/05 04:38:21;;;;;;;21.17;9.37;;;3.70;99.70;;;;;;5052084;28;20463;-71
2021/04/05 04:40:48;;;;;;;16.67;8.00;;;4.00;99.70;;;;;;5052930;28;20563;-71
2021/04/05 04:43:15;;;;;;;13.83;7.97;;;3.90;99.70;;;;;;5052369;28;20443;-71
2021/04/05 04:45:41;;;;;;;17.60;8.20;;;3.90;99.70;;;;;;5050850;28;20908;-71
2021/04/05 04:48:08;;;;;;;18.33;8.10;;;3.80;99.70;;;;;;5051955;28;20451;-71
2021/04/05 04:50:34;;;;;;;14.67;8.30;;;3.80;99.70;;;;;;5052088;28;21081;-71
2021/04/05 04:53:01;;;;;;;18.30;9.10;;;3.80;99.70;;;;;;5052118;28;20859;-71
2021/04/05 04:55:28;;;;;;;18.17;8.37;;;3.70;99.70;;;;;;5052404;28;20784;-70
2021/04/05 04:57:56;;;;;;;20.63;9.60;;;3.70;99.70;;;;;;5052103;28;20475;-70
2021/04/05 05:00:24;;;;;;;18.20;9.37;;;3.70;99.70;;;;;;5052160;28;20490;-70
2021/04/05 05:02:51;;;;;;;18.93;9.07;;;3.70;99.70;;;;;;5052030;28;20435;-70
2021/04/05 05:05:20;;;;;;;18.23;8.53;;;3.70;99.70;;;;;;5051456;28;20451;-70
2021/04/05 05:07:47;;;;;;;18.20;8.73;;;3.80;99.70;;;;;;5051626;28;20464;-70
2021/04/05 05:10:14;;;;;;;18.10;8.87;;;3.70;99.70;;;;;;5051808;28;20471;-71
2021/04/05 05:12:41;;;;;;;16.50;8.50;;;3.60;99.70;;;;;;5051693;28;20483;-71
2021/04/05 05:15:10;;;;;;;19.73;9.17;;;3.50;99.70;;;;;;5051150;28;20455;-70
2021/04/05 05:17:40;;;;;;;18.37;8.80;;;3.70;99.70;;;;;;5051383;28;20842;-71
2021/04/05 05:20:07;;;;;;;16.93;9.43;;;3.70;99.70;;;;;;5051901;28;20953;-70
2021/04/05 05:22:37;;;;;;;19.23;8.97;;;3.60;99.70;;;;;;5051466;28;20440;-71
2021/04/05 05:25:05;;;;;;;18.00;8.67;;;3.50;99.70;;;;;;5051111;28;20470;-70
2021/04/05 05:27:32;;;;;;;39.93;14.03;;;3.50;99.70;;;;;;5051105;28;20451;-71
2021/04/05 05:29:59;;;;;;;46.37;16.70;;;3.50;99.70;;;;;;5051288;28;20521;-71
2021/04/05 05:32:25;;;;;;;35.93;14.20;;;3.50;99.70;;;;;;5051180;28;20447;-70
2021/04/05 05:34:52;;;;;;;21.33;10.60;;;3.50;99.70;;;;;;5051542;28;20447;-71
2021/04/05 05:37:21;;;;;;;26.47;12.63;;;3.60;99.70;;;;;;5051145;28;20831;-71
2021/04/05 05:39:48;;;;;;;25.77;12.43;;;3.50;99.70;;;;;;5051363;28;20887;-70
2021/04/05 05:42:26;;;;;;;29.53;13.33;;;3.60;99.70;;;;;;5050928;28;20468;-71
2021/04/05 05:45:01;;;;;;;20.60;9.47;;;3.70;99.70;;;;;;5049607;28;20447;-69
2021/04/05 05:47:31;;;;;;;23.23;10.30;;;3.70;99.70;;;;;;5050904;28;20451;-71
2021/04/05 05:50:09;;;;;;;21.30;9.03;;;3.80;99.70;;;;;;5049523;28;20448;-71
2021/04/05 05:52:48;;;;;;;20.93;9.80;;;4.10;99.70;;;;;;5050938;28;21015;-71
2021/04/05 05:55:26;;;;;;;19.77;9.10;;;4.40;99.70;;;;;;5050388;28;20505;-71
2021/04/05 05:58:03;;;;;;;18.33;7.90;;;4.40;99.70;;;;;;5050529;28;20447;-71
2021/04/05 06:00:32;;;;;;;16.30;8.20;;;4.50;99.70;;;;;;5050876;28;20474;-71
2021/04/05 06:03:21;;;;;;;17.33;7.70;;;4.70;99.70;;;;;;5050636;28;20965;-71
2021/04/05 06:05:57;;;;;;;15.17;8.20;;;4.80;99.70;;;;;;5050249;28;20445;-71
2021/04/05 06:08:33;;;;;;;15.23;8.37;;;4.80;99.70;;;;;;5050202;28;20439;-70
2021/04/05 06:11:08;;;;;;;20.03;8.50;;;5.00;99.70;;;;;;5050664;28;20468;-70
2021/04/05 06:13:44;;;;;;;15.17;8.03;;;5.10;99.70;;;;;;5050525;28;20483;-71
2021/04/05 06:16:21;;;;;;;22.80;8.60;;;5.10;99.70;;;;;;5050088;28;20876;-71
2021/04/05 06:18:59;;;;;;;15.60;8.10;;;5.00;99.70;;;;;;5050403;28;20466;-70
2021/04/05 06:21:37;;;;;;;17.57;7.90;;;5.10;99.70;;;;;;5050792;28;20470;-70
2021/04/05 06:24:11;;;;;;;16.00;8.27;;;5.10;99.70;;;;;;5050956;28;20458;-69
2021/04/05 06:26:48;;;;;;;21.23;8.97;;;5.20;99.70;;;;;;5050092;28;20447;-71
2021/04/05 06:29:29;;;;;;;14.70;7.57;;;5.40;99.70;;;;;;5050704;28;20444;-70
2021/04/05 06:32:06;;;;;;;16.83;8.17;;;5.40;99.70;;;;;;5050115;28;20471;-70
2021/04/05 06:34:50;;;;;;;13.20;7.60;;;5.50;99.70;;;;;;5050366;28;20841;-70
2021/04/05 06:37:26;;;;;;;16.93;6.80;;;5.70;99.70;;;;;;5049367;28;20444;-70
2021/04/05 06:39:59;;;;;;;14.43;6.30;;;6.00;99.70;;;;;;5050183;28;20879;-71
2021/04/05 06:42:46;;;;;;;11.60;6.10;;;6.40;99.70;;;;;;5050158;28;20804;-71
2021/04/05 06:45:48;;;;;;;10.97;5.50;;;6.60;99.70;;;;;;5048216;28;20443;-71
2021/04/05 06:48:42;;;;;;;12.53;6.07;;;6.80;99.00;;;;;;5049751;28;20448;-71
2021/04/05 06:51:20;;;;;;;12.33;5.90;;;6.90;98.70;;;;;;5050453;28;20791;-70
2021/04/05 06:54:21;;;;;;;10.83;5.43;;;7.20;98.90;;;;;;5049797;28;21247;-70
2021/04/05 06:57:02;;;;;;;9.57;5.90;;;7.30;97.40;;;;;;5049293;28;20448;-71
2021/04/05 06:59:41;;;;;;;9.70;5.27;;;7.20;97.80;;;;;;5049534;28;20444;-70
2021/04/05 07:02:42;;;;;;;12.07;6.00;;;7.20;97.60;;;;;;5049671;28;20521;-71
2021/04/05 07:05:23;;;;;;;11.97;6.13;;;7.20;97.80;;;;;;5049244;28;20952;-71
2021/04/05 07:07:56;;;;;;;13.80;5.63;;;7.30;97.20;;;;;;5049277;28;20572;-71
2021/04/05 07:10:28;;;;;;;12.93;5.90;;;7.50;96.60;;;;;;5049378;28;20467;-69
2021/04/05 07:13:01;;;;;;;9.37;5.30;;;7.60;96.60;;;;;;5049836;28;20467;-70
2021/04/05 07:15:41;;;;;;;11.33;5.93;;;7.90;95.70;;;;;;5048907;28;20683;-71
2021/04/05 07:18:20;;;;;;;12.10;5.40;;;8.10;94.80;;;;;;5048955;28;20448;-70
2021/04/05 07:21:00;;;;;;;11.40;5.13;;;8.10;94.80;;;;;;5049304;28;20848;-70
2021/04/05 07:23:40;;;;;;;11.93;5.10;;;8.10;94.10;;;;;;5049075;28;20673;-70
2021/04/05 07:26:24;;;;;;;10.37;5.47;;;8.20;93.90;;;;;;5048544;28;20945;-71
2021/04/05 07:29:00;;;;;;;13.60;5.70;;;8.40;93.50;;;;;;5048844;28;20474;-71
2021/04/05 07:31:39;;;;;;;10.80;5.63;;;8.40;93.10;;;;;;5050101;28;20518;-70
2021/04/05 07:34:26;;;;;;;13.90;5.10;;;8.60;92.70;;;;;;5048922;28;20505;-70
2021/04/05 07:36:58;;;;;;;8.33;4.80;;;9.00;91.90;;;;;;5048231;28;20451;-70
2021/04/05 07:39:32;;;;;;;10.70;4.90;;;9.30;90.50;;;;;;5048903;28;20522;-70
2021/04/05 07:42:09;;;;;;;13.20;4.83;;;9.70;89.70;;;;;;5049066;28;20479;-71
2021/04/05 07:44:51;;;;;;;10.53;5.03;;;9.80;88.70;;;;;;5048904;28;20500;-70
2021/04/05 07:47:29;;;;;;;15.73;5.60;;;10.00;88.10;;;;;;5048483;28;20953;-71
2021/04/05 07:50:03;;;;;;;11.07;5.20;;;10.10;87.50;;;;;;5048893;28;20813;-70
2021/04/05 07:52:36;;;;;;;10.60;4.90;;;10.40;87.50;;;;;;5048820;28;20792;-71
2021/04/05 07:55:04;;;;;;;13.57;4.83;;;10.80;86.50;;;;;;5048651;28;20493;-69
2021/04/05 07:57:40;;;;;;;9.63;4.70;;;10.80;85.60;;;;;;5048883;28;20819;-71
2021/04/05 08:00:11;;;;;;;9.97;5.17;;;10.70;86.00;;;;;;5049406;28;20451;-70
2021/04/05 08:02:55;;;;;;;8.63;5.17;;;10.70;86.00;;;;;;5052011;28;20500;-71
2021/04/05 08:05:30;;;;;;;12.00;5.40;;;10.50;87.00;;;;;;5065357;28;20451;-70
2021/04/05 08:08:13;;;;;;;11.13;5.33;;;10.80;86.50;;;;;;5062353;28;20446;-70
2021/04/05 08:10:51;;;;;;;14.10;5.60;;;10.60;86.60;;;;;;5066606;28;20550;-69
2021/04/05 08:13:29;;;;;;;11.57;5.47;;;10.50;86.50;;;;;;5067413;28;20903;-70
2021/04/05 08:16:08;;;;;;;12.00;5.40;;;10.60;86.40;;;;;;5067655;28;20465;-70
2021/04/05 08:18:42;;;;;;;12.93;5.30;;;10.70;86.10;;;;;;5066669;28;20449;-68
2021/04/05 08:21:12;;;;;;;13.03;5.70;;;10.90;86.60;;;;;;5063930;28;20529;-70
2021/04/05 08:23:52;;;;;;;14.50;5.53;;;11.40;85.90;;;;;;5066169;28;21126;-71
2021/04/05 08:26:29;;;;;;;13.03;5.80;;;11.50;85.40;;;;;;5067372;28;20454;-70
2021/04/05 08:29:06;;;;;;;11.47;5.00;;;11.10;84.80;;;;;;5067317;28;20824;-70
2021/04/05 08:32:01;;;;;;;9.97;4.80;;;11.40;85.70;;;;;;5061272;28;20478;-71
2021/04/05 08:34:38;;;;;;;11.20;5.30;;;11.70;84.30;;;;;;5036145;28;20536;-71
2021/04/05 08:37:14;;;;;;;11.60;5.00;;;11.80;84.60;;;;;;5057007;28;20450;-69
2021/04/05 08:39:46;;;;;;;10.67;4.73;;;12.00;84.80;;;;;;5065252;28;20942;-70
2021/04/05 08:42:17;;;;;;;13.70;5.20;;;11.80;84.50;;;;;;5057630;28;20472;-70
2021/04/05 08:44:51;;;;;;;14.63;5.30;;;11.60;85.00;;;;;;5046814;28;20817;-69
2021/04/05 08:47:22;;;;;;;12.63;4.63;;;11.80;84.40;;;;;;5062439;28;20474;-70
2021/04/05 08:49:49;;;;;;;11.13;4.67;;;12.10;84.00;;;;;;5065983;28;20446;-70
2021/04/05 08:52:20;;;;;;;17.10;4.93;;;11.90;83.60;;;;;;5066845;28;20843;-70
2021/04/05 08:54:49;;;;;;;15.53;4.50;;;11.80;81.90;;;;;;5059241;28;20511;-70
2021/04/05 08:57:22;;;;;;;18.90;4.10;;;11.80;82.10;;;;;;5045476;28;20436;-70
2021/04/05 08:59:56;;;;;;;40.17;5.33;;;11.80;81.00;;;;;;5046204;28;20509;-70
2021/04/05 09:02:25;;;;;;;11.20;3.80;;;11.90;79.50;;;;;;5046189;28;20467;-70
2021/04/05 09:04:54;;;;;;;10.60;3.80;;;12.00;78.60;;;;;;5046849;28;20448;-70
2021/04/05 09:07:32;;;;;;;10.50;3.50;;;11.80;77.80;;;;;;5046705;28;20466;-70
2021/04/05 09:10:04;;;;;;;10.10;3.60;;;11.90;77.60;;;;;;5046574;28;20439;-71
2021/04/05 09:12:32;;;;;;;13.87;3.80;;;12.10;78.60;;;;;;5059645;28;20442;-69
2021/04/05 09:15:39;;;;;;;7.23;3.70;;;12.00;78.00;;;;;;5066169;28;20929;-70
2021/04/05 09:18:22;;;;;;;8.63;3.50;;;12.00;79.30;;;;;;5066519;28;20788;-70
2021/04/05 09:21:02;;;;;;;9.43;3.53;;;12.30;78.80;;;;;;5066742;28;21046;-70
2021/04/05 09:23:53;;;;;;;9.20;3.47;;;12.20;78.70;;;;;;5068745;28;20450;-70
2021/04/05 09:26:52;;;;;;;9.77;3.33;;;11.80;78.60;;;;;;5061056;28;20438;-70
2021/04/05 09:29:35;;;;;;;10.90;3.37;;;11.80;79.70;;;;;;5070186;28;20435;-70
2021/04/05 09:32:26;;;;;;;9.10;3.70;;;11.60;78.90;;;;;;5069817;28;20478;-70
2021/04/05 09:35:34;;;;;;;8.30;3.40;;;11.70;78.80;;;;;;5069780;28;20830;-69
2021/04/05 09:38:35;;;;;;;11.43;3.70;;;11.90;78.80;;;;;;4986825;28;20446;-68
2021/04/05 09:41:28;;;;;;;8.57;3.57;;;12.00;79.30;;;;;;4973191;28;21070;-68
2021/04/05 09:44:24;;;;;;;10.10;4.00;;;12.00;79.30;;;;;;5052770;28;20447;-70
2021/04/05 09:47:15;;;;;;;7.77;3.40;;;11.70;80.00;;;;;;5056920;28;20631;-71
2021/04/05 09:49:54;;;;;;;10.97;3.23;;;11.80;79.00;;;;;;5062210;28;20890;-70
2021/04/05 09:52:41;;;;;;;6.00;3.50;;;11.50;78.20;;;;;;5056041;28;20443;-71
2021/04/05 09:55:12;;;;;;;11.70;4.10;;;11.50;79.30;;;;;;5069196;28;20496;-71
2021/04/05 09:57:42;;;;;;;9.40;3.60;;;11.90;79.40;;;;;;5060783;28;20451;-70
2021/04/05 10:00:12;;;;;;;9.00;3.80;;;11.80;79.70;;;;;;5064580;28;20447;-69
2021/04/05 10:02:51;;;;;;;8.00;3.70;;;11.90;79.70;;;;;;5078444;28;20879;-70
2021/04/05 10:05:19;;;;;;;8.80;4.00;;;11.80;79.00;;;;;;5070754;28;20863;-71
2021/04/05 10:07:47;;;;;;;9.17;4.00;;;11.60;78.30;;;;;;5057044;28;20798;-72
2021/04/05 10:10:16;;;;;;;9.80;3.70;;;11.70;78.00;;;;;;5065685;28;20490;-71
2021/04/05 10:12:44;;;;;;;10.47;4.10;;;11.70;78.80;;;;;;5054967;28;20449;-70
2021/04/05 10:15:14;;;;;;;8.53;3.77;;;11.60;78.60;;;;;;5069086;28;20802;-71
2021/04/05 10:17:47;;;;;;;14.60;4.37;;;11.60;79.30;;;;;;5060341;28;20805;-71
2021/04/05 10:20:15;;;;;;;8.60;3.43;;;11.70;79.00;;;;;;5058922;28;20899;-71
2021/04/05 10:22:43;;;;;;;9.97;3.93;;;11.70;79.10;;;;;;5056426;28;20496;-71
2021/04/05 10:25:13;;;;;;;12.00;4.13;;;11.80;79.90;;;;;;5062877;28;20467;-71
2021/04/05 10:27:40;;;;;;;6.60;3.80;;;11.80;80.40;;;;;;5063742;28;20508;-71
2021/04/05 10:30:10;;;;;;;9.37;3.90;;;11.80;80.60;;;;;;5054625;28;20479;-71
2021/04/05 10:32:40;;;;;;;9.50;4.20;;;11.70;79.70;;;;;;5068778;28;20450;-71
2021/04/05 10:35:11;;;;;;;8.63;3.83;;;11.70;79.30;;;;;;5060399;28;20916;-70
2021/04/05 10:37:43;;;;;;;12.70;4.30;;;11.70;78.80;;;;;;5053393;28;20454;-70
2021/04/05 10:40:14;;;;;;;11.43;4.00;;;11.60;79.00;;;;;;5067008;28;20517;-70
2021/04/05 10:42:47;;;;;;;9.40;4.20;;;11.50;78.60;;;;;;5063185;28;20451;-71
2021/04/05 10:45:20;;;;;;;9.27;3.83;;;11.70;77.80;;;;;;5055569;28;20448;-71
2021/04/05 10:47:57;;;;;;;7.40;4.17;;;11.80;78.80;;;;;;5048833;28;20444;-70
2021/04/05 10:50:27;;;;;;;8.03;3.90;;;12.00;79.40;;;;;;5049424;28;20459;-70
2021/04/05 10:52:55;;;;;;;10.03;3.90;;;11.90;77.20;;;;;;5049882;28;20502;-71
2021/04/05 10:55:24;;;;;;;9.13;3.57;;;12.00;77.00;;;;;;5048943;28;20482;-71
2021/04/05 10:57:54;;;;;;;7.63;3.70;;;11.90;75.80;;;;;;5048470;28;20945;-70
2021/04/05 11:00:25;;;;;;;7.40;3.40;;;11.70;74.50;;;;;;5048895;28;20984;-70
2021/04/05 11:02:55;;;;;;;10.33;3.97;;;11.80;75.50;;;;;;5068281;28;20462;-70
2021/04/05 11:05:23;;;;;;;8.43;3.80;;;11.80;74.90;;;;;;5068585;28;20940;-71
2021/04/05 11:07:57;;;;;;;8.53;4.03;;;11.70;75.00;;;;;;5049555;28;20448;-71
2021/04/05 11:10:26;;;;;;;8.00;3.90;;;12.00;75.30;;;;;;5048715;28;20475;-70
2021/04/05 11:12:56;;;;;;;8.83;3.83;;;11.80;74.10;;;;;;5067054;28;20470;-71
2021/04/05 11:15:24;;;;;;;7.20;3.67;;;11.80;75.60;;;;;;5060746;28;20463;-69
2021/04/05 11:17:53;;;;;;;10.80;3.73;;;11.80;74.20;;;;;;5065266;28;20447;-71
2021/04/05 11:20:22;;;;;;;9.50;4.03;;;11.80;72.60;;;;;;5051968;28;20499;-70
2021/04/05 11:22:58;;;;;;;7.80;3.87;;;11.90;73.10;;;;;;5051474;28;20464;-71
2021/04/05 11:25:31;;;;;;;9.53;4.57;;;11.60;73.70;;;;;;5063119;28;20436;-70
2021/04/05 11:28:07;;;;;;;10.07;3.87;;;11.50;74.00;;;;;;5060927;28;20504;-71
2021/04/05 11:30:34;;;;;;;8.93;3.83;;;11.60;75.30;;;;;;5059321;28;21010;-70
2021/04/05 11:33:01;;;;;;;8.60;4.30;;;11.80;75.10;;;;;;5066293;28;20463;-71
2021/04/05 11:35:32;;;;;;;10.33;4.07;;;11.70;74.40;;;;;;5067795;28;20451;-70
2021/04/05 11:38:02;;;;;;;12.97;4.20;;;11.90;75.10;;;;;;5047829;28;20440;-71
2021/04/05 11:40:30;;;;;;;10.10;4.03;;;11.90;74.50;;;;;;5049125;28;20467;-70
2021/04/05 11:43:00;;;;;;;8.20;3.93;;;12.10;75.50;;;;;;5047907;28;20447;-71
2021/04/05 11:45:32;;;;;;;12.03;4.20;;;12.00;75.10;;;;;;5057597;28;20447;-71
2021/04/05 11:48:02;;;;;;;7.77;3.80;;;11.90;74.50;;;;;;5047173;28;20447;-70
2021/04/05 11:50:29;;;;;;;9.40;4.30;;;12.00;74.40;;;;;;5048618;28;20472;-71
2021/04/05 11:53:05;;;;;;;10.07;4.30;;;12.00;74.20;;;;;;5067809;28;20858;-70
2021/04/05 11:55:35;;;;;;;8.60;4.40;;;12.10;75.30;;;;;;5065612;28;20963;-71
2021/04/05 11:58:05;;;;;;;10.40;4.20;;;12.10;74.30;;;;;;5047823;28;20443;-70
2021/04/05 12:00:37;;;;;;;10.10;4.50;;;12.10;75.30;;;;;;5048890;28;20471;-71
2021/04/05 12:03:11;;;;;;;10.10;4.60;;;12.20;75.20;;;;;;5051541;28;20505;-70
2021/04/05 12:05:42;;;;;;;8.90;4.37;;;12.20;74.80;;;;;;5048551;28;20452;-70
2021/04/05 12:08:13;;;;;;;11.83;5.47;;;12.20;75.80;;;;;;5065500;28;20454;-70
2021/04/05 12:10:44;;;;;;;14.03;5.03;;;12.20;76.60;;;;;;5067284;28;20470;-70
2021/04/05 12:13:16;;;;;;;17.20;5.33;;;12.20;77.20;;;;;;5065764;28;20475;-71
2021/04/05 12:15:44;;;;;;;11.90;5.30;;;12.30;78.10;;;;;;5047316;28;20839;-70
2021/04/05 12:18:12;;;;;;;13.23;5.87;;;12.30;77.50;;;;;;5054760;28;20443;-70
2021/04/05 12:20:40;;;;;;;12.23;5.40;;;12.40;78.20;;;;;;5053273;28;20472;-71
2021/04/05 12:23:08;;;;;;;11.30;4.80;;;12.30;78.20;;;;;;5067687;28;20465;-71
2021/04/05 12:25:37;;;;;;;13.83;5.40;;;12.30;78.00;;;;;;5066901;28;20597;-70
2021/04/05 12:28:06;;;;;;;11.60;6.00;;;12.20;77.70;;;;;;5054572;28;20579;-69
2021/04/05 12:30:34;;;;;;;11.17;5.13;;;11.90;78.10;;;;;;5066111;28;21047;-70
2021/04/05 12:33:02;;;;;;;20.50;6.07;;;11.80;78.60;;;;;;5055127;28;20461;-70
2021/04/05 12:35:29;;;;;;;14.37;6.10;;;11.80;78.80;;;;;;5062515;28;21053;-70
2021/04/05 12:37:58;;;;;;;13.23;6.03;;;11.70;78.90;;;;;;5067328;28;20959;-70
2021/04/05 12:40:26;;;;;;;15.73;5.80;;;11.50;79.60;;;;;;5065846;28;20467;-70
2021/04/05 12:42:55;;;;;;;18.13;6.40;;;11.60;80.40;;;;;;5066934;28;20961;-70
2021/04/05 12:45:23;;;;;;;17.10;6.53;;;11.50;80.80;;;;;;5056058;28;20811;-71
2021/04/05 12:47:52;;;;;;;19.73;6.57;;;11.50;80.80;;;;;;5049133;28;20872;-71
2021/04/05 12:50:25;;;;;;;19.23;6.60;;;11.50;80.80;;;;;;5060307;28;20463;-70
2021/04/05 12:52:57;;;;;;;16.07;6.23;;;11.50;81.10;;;;;;5061817;28;20454;-70
2021/04/05 12:55:24;;;;;;;15.90;5.97;;;11.50;81.10;;;;;;5062379;28;20844;-69
2021/04/05 12:57:56;;;;;;;14.33;6.43;;;11.40;81.50;;;;;;5056927;28;20808;-70
2021/04/05 13:00:25;;;;;;;19.83;7.10;;;11.30;82.20;;;;;;5058242;28;20551;-70
2021/04/05 13:02:58;;;;;;;16.50;7.20;;;11.30;83.20;;;;;;5070334;28;20454;-70
2021/04/05 13:05:31;;;;;;;17.47;7.00;;;11.20;83.10;;;;;;5069431;28;20458;-71
2021/04/05 13:08:03;;;;;;;18.40;7.70;;;11.10;83.40;;;;;;5053549;28;20825;-70